sensor_id;sensor_type;location;lat;lon;timestamp;pressure;altitude;pressure_sealevel;temperature;humidity
73457;BME280;61691;53.072;6.582;2023-08-24T01:32:23;101870.78;;;16.71;72.17
73457;BME280;61691;53.072;6.582;2023-08-24T01:34:50;101869.94;;;16.71;72.42
73457;BME280;61691;53.072;6.582;2023-08-24T01:37:17;101877.69;;;16.74;72.32
73457;BME280;61691;53.072;6.582;2023-08-24T01:40:00;101872.34;;;16.74;72.83
73457;BME280;61691;53.072;6.582;2023-08-24T01:42:48;101858.16;;;16.63;72.78
73457;BME280;61691;53.072;6.582;2023-08-24T01:45:18;101870.50;;;16.74;72.91
73457;BME280;61691;53.072;6.582;2023-08-24T01:47:47;101871.63;;;16.72;73.05
73457;BME280;61691;53.072;6.582;2023-08-24T01:50:15;101868.81;;;16.73;73.02
73457;BME280;61691;53.072;6.582;2023-08-24T01:52:43;101862.31;;;16.76;73.31
73457;BME280;61691;53.072;6.582;2023-08-24T01:55:11;101827.19;;;16.61;73.08
73457;BME280;61691;53.072;6.582;2023-08-24T01:57:38;101864.81;;;16.77;73.33
73457;BME280;61691;53.072;6.582;2023-08-24T02:00:05;101862.00;;;16.79;73.54
73457;BME280;61691;53.072;6.582;2023-08-24T02:02:36;101854.00;;;16.69;73.67
73457;BME280;61691;53.072;6.582;2023-08-24T02:05:03;101839.41;;;16.63;73.31
73457;BME280;61691;53.072;6.582;2023-08-24T02:07:30;101862.31;;;16.76;73.64
73457;BME280;61691;53.072;6.582;2023-08-24T02:09:57;101858.63;;;16.77;73.74
73457;BME280;61691;53.072;6.582;2023-08-24T02:12:23;101859.47;;;16.77;73.84
73457;BME280;61691;53.072;6.582;2023-08-24T02:14:50;101865.00;;;16.76;73.98
73457;BME280;61691;53.072;6.582;2023-08-24T02:17:17;101862.91;;;16.70;73.89
73457;BME280;61691;53.072;6.582;2023-08-24T02:19:43;101855.03;;;16.68;73.80
73457;BME280;61691;53.072;6.582;2023-08-24T02:22:10;101858.84;;;16.66;74.00
73457;BME280;61691;53.072;6.582;2023-08-24T02:24:37;101864.59;;;16.71;74.04
73457;BME280;61691;53.072;6.582;2023-08-24T02:27:03;101862.91;;;16.70;73.98
73457;BME280;61691;53.072;6.582;2023-08-24T02:29:30;101857.00;;;16.66;74.08
73457;BME280;61691;53.072;6.582;2023-08-24T02:31:57;101858.16;;;16.63;74.37
73457;BME280;61691;53.072;6.582;2023-08-24T02:34:24;101865.44;;;16.71;74.50
73457;BME280;61691;53.072;6.582;2023-08-24T02:36:50;101852.22;;;16.60;74.27
73457;BME280;61691;53.072;6.582;2023-08-24T02:39:17;101846.31;;;16.56;74.26
73457;BME280;61691;53.072;6.582;2023-08-24T02:41:43;101855.59;;;16.62;74.40
73457;BME280;61691;53.072;6.582;2023-08-24T02:44:11;101869.28;;;16.69;74.54
73457;BME280;61691;53.072;6.582;2023-08-24T02:46:37;101852.78;;;16.63;74.55
73457;BME280;61691;53.072;6.582;2023-08-24T02:49:04;101862.91;;;16.70;74.79
73457;BME280;61691;53.072;6.582;2023-08-24T02:51:31;101856.88;;;16.68;74.21
73457;BME280;61691;53.072;6.582;2023-08-24T02:53:58;101856.69;;;16.69;74.78
73457;BME280;61691;53.072;6.582;2023-08-24T02:56:25;101847.44;;;16.63;74.87
73457;BME280;61691;53.072;6.582;2023-08-24T02:58:52;101857.41;;;16.71;74.95
73457;BME280;61691;53.072;6.582;2023-08-24T03:01:19;101834.47;;;16.59;74.97
73457;BME280;61691;53.072;6.582;2023-08-24T03:03:46;101834.91;;;16.64;74.51
73457;BME280;61691;53.072;6.582;2023-08-24T03:06:13;101844.56;;;16.75;75.09
73457;BME280;61691;53.072;6.582;2023-08-24T03:08:39;101834.84;;;16.74;74.89
73457;BME280;61691;53.072;6.582;2023-08-24T03:11:06;101833.72;;;16.76;74.94
73457;BME280;61691;53.072;6.582;2023-08-24T03:13:36;101842.81;;;16.83;74.97
73457;BME280;61691;53.072;6.582;2023-08-24T03:16:08;101829.88;;;16.79;74.98
73457;BME280;61691;53.072;6.582;2023-08-24T03:18:35;101822.81;;;16.78;75.07
73457;BME280;61691;53.072;6.582;2023-08-24T03:21:01;101826.50;;;16.77;74.98
73457;BME280;61691;53.072;6.582;2023-08-24T03:23:28;101821.47;;;16.74;74.85
73457;BME280;61691;53.072;6.582;2023-08-24T03:25:55;101812.34;;;16.67;75.17
73457;BME280;61691;53.072;6.582;2023-08-24T03:28:23;101827.09;;;16.71;75.32
73457;BME280;61691;53.072;6.582;2023-08-24T03:30:52;101828.78;;;16.72;75.40
73457;BME280;61691;53.072;6.582;2023-08-24T03:33:19;101826.72;;;16.66;75.35
73457;BME280;61691;53.072;6.582;2023-08-24T03:35:46;101831.09;;;16.67;75.15
73457;BME280;61691;53.072;6.582;2023-08-24T03:38:13;101836.97;;;16.70;75.21
73457;BME280;61691;53.072;6.582;2023-08-24T03:40:40;101823.47;;;16.62;75.08
73457;BME280;61691;53.072;6.582;2023-08-24T03:43:07;101830.25;;;16.66;75.16
73457;BME280;61691;53.072;6.582;2023-08-24T03:45:33;101823.66;;;16.60;75.16
73457;BME280;61691;53.072;6.582;2023-08-24T03:48:01;101821.81;;;16.61;75.25
73457;BME280;61691;53.072;6.582;2023-08-24T03:50:27;101828.09;;;16.70;75.35
73457;BME280;61691;53.072;6.582;2023-08-24T03:52:54;101811.22;;;16.59;75.21
73457;BME280;61691;53.072;6.582;2023-08-24T03:55:22;101825.03;;;16.64;75.25
73457;BME280;61691;53.072;6.582;2023-08-24T03:57:49;101816.16;;;16.54;75.37
73457;BME280;61691;53.072;6.582;2023-08-24T04:00:17;101810.34;;;16.41;75.28
73457;BME280;61691;53.072;6.582;2023-08-24T04:02:44;101834.75;;;16.56;75.29
73457;BME280;61691;53.072;6.582;2023-08-24T04:05:11;101822.81;;;16.50;75.27
73457;BME280;61691;53.072;6.582;2023-08-24T04:07:39;101820.44;;;16.47;75.15
73457;BME280;61691;53.072;6.582;2023-08-24T04:10:07;101817.75;;;16.47;75.04
73457;BME280;61691;53.072;6.582;2023-08-24T04:12:34;101793.50;;;16.31;75.09
73457;BME280;61691;53.072;6.582;2023-08-24T04:15:02;101828.78;;;16.44;75.08
73457;BME280;61691;53.072;6.582;2023-08-24T04:17:29;101820.75;;;16.44;75.28
73457;BME280;61691;53.072;6.582;2023-08-24T04:19:56;101799.28;;;16.26;75.02
73457;BME280;61691;53.072;6.582;2023-08-24T04:22:22;101834.41;;;16.41;75.13
73457;BME280;61691;53.072;6.582;2023-08-24T04:24:49;101814.31;;;16.37;74.99
73457;BME280;61691;53.072;6.582;2023-08-24T04:27:16;101816.00;;;16.38;74.86
73457;BME280;61691;53.072;6.582;2023-08-24T04:29:42;101815.41;;;16.44;75.10
73457;BME280;61691;53.072;6.582;2023-08-24T04:32:09;101805.81;;;16.42;75.31
73457;BME280;61691;53.072;6.582;2023-08-24T04:34:36;101803.84;;;16.44;75.31
73457;BME280;61691;53.072;6.582;2023-08-24T04:37:03;101793.19;;;16.34;75.32
73457;BME280;61691;53.072;6.582;2023-08-24T04:39:29;101800.59;;;16.40;75.37
73457;BME280;61691;53.072;6.582;2023-08-24T04:41:57;101779.56;;;16.27;75.71
73457;BME280;61691;53.072;6.582;2023-08-24T04:44:24;101792.91;;;16.37;75.48
73457;BME280;61691;53.072;6.582;2023-08-24T04:46:51;101772.38;;;16.28;75.59
73457;BME280;61691;53.072;6.582;2023-08-24T04:49:18;101777.13;;;16.34;75.76
73457;BME280;61691;53.072;6.582;2023-08-24T04:51:44;101785.25;;;16.42;75.95
73457;BME280;61691;53.072;6.582;2023-08-24T04:54:11;101780.75;;;16.43;75.62
73457;BME280;61691;53.072;6.582;2023-08-24T04:56:38;101764.44;;;16.36;75.84
73457;BME280;61691;53.072;6.582;2023-08-24T04:59:05;101745.88;;;16.35;75.92
73457;BME280;61691;53.072;6.582;2023-08-24T05:01:31;101776.00;;;16.54;76.08
73457;BME280;61691;53.072;6.582;2023-08-24T05:03:58;101789.69;;;16.61;76.06
73457;BME280;61691;53.072;6.582;2023-08-24T05:06:26;101788.25;;;16.67;76.20
73457;BME280;61691;53.072;6.582;2023-08-24T05:08:52;101786.78;;;16.72;76.02
73457;BME280;61691;53.072;6.582;2023-08-24T05:11:21;101774.09;;;16.92;76.86
73457;BME280;61691;53.072;6.582;2023-08-24T05:13:48;101772.47;;;17.34;76.76
73457;BME280;61691;53.072;6.582;2023-08-24T05:16:15;101771.78;;;17.76;76.36
73457;BME280;61691;53.072;6.582;2023-08-24T05:18:42;101796.66;;;18.20;75.76
73457;BME280;61691;53.072;6.582;2023-08-24T05:21:09;101793.91;;;18.46;75.22
73457;BME280;61691;53.072;6.582;2023-08-24T05:23:35;101793.31;;;18.60;74.48
73457;BME280;61691;53.072;6.582;2023-08-24T05:26:03;101756.63;;;18.43;73.99
73457;BME280;61691;53.072;6.582;2023-08-24T05:28:30;101787.66;;;18.95;73.96
73457;BME280;61691;53.072;6.582;2023-08-24T05:30:58;101789.53;;;19.36;73.36
73457;BME280;61691;53.072;6.582;2023-08-24T05:33:26;101778.13;;;19.58;72.56
73457;BME280;61691;53.072;6.582;2023-08-24T05:35:53;101775.25;;;19.67;71.75
73457;BME280;61691;53.072;6.582;2023-08-24T05:38:20;101783.03;;;20.09;71.46
73457;BME280;61691;53.072;6.582;2023-08-24T05:40:48;101796.72;;;20.78;70.66
73457;BME280;61691;53.072;6.582;2023-08-24T05:43:15;101792.13;;;21.32;68.95
73457;BME280;61691;53.072;6.582;2023-08-24T05:45:42;101764.47;;;21.68;67.16
73457;BME280;61691;53.072;6.582;2023-08-24T05:48:11;101782.94;;;22.23;65.80
73457;BME280;61691;53.072;6.582;2023-08-24T05:50:48;101779.56;;;22.71;62.86
73457;BME280;61691;53.072;6.582;2023-08-24T05:53:14;101775.63;;;23.10;62.46
73457;BME280;61691;53.072;6.582;2023-08-24T05:55:41;101778.78;;;23.13;60.05
73457;BME280;61691;53.072;6.582;2023-08-24T05:58:08;101779.56;;;23.07;59.40
73457;BME280;61691;53.072;6.582;2023-08-24T06:00:35;101781.38;;;23.00;58.76
73457;BME280;61691;53.072;6.582;2023-08-24T06:03:02;101777.56;;;22.95;57.98
73457;BME280;61691;53.072;6.582;2023-08-24T06:05:30;101783.13;;;23.08;57.61
73457;BME280;61691;53.072;6.582;2023-08-24T06:07:58;101767.78;;;23.15;56.59
73457;BME280;61691;53.072;6.582;2023-08-24T06:10:25;101779.09;;;23.25;55.94
73457;BME280;61691;53.072;6.582;2023-08-24T06:12:53;101767.97;;;23.13;55.74
73457;BME280;61691;53.072;6.582;2023-08-24T06:15:20;101758.81;;;22.93;55.91
73457;BME280;61691;53.072;6.582;2023-08-24T06:17:50;101772.75;;;22.90;55.96
73457;BME280;61691;53.072;6.582;2023-08-24T06:20:19;101781.16;;;22.81;56.33
73457;BME280;61691;53.072;6.582;2023-08-24T06:22:46;101761.16;;;22.60;56.46
73457;BME280;61691;53.072;6.582;2023-08-24T06:25:13;101769.06;;;22.76;56.88
73457;BME280;61691;53.072;6.582;2023-08-24T06:27:41;101764.81;;;22.89;57.16
73457;BME280;61691;53.072;6.582;2023-08-24T06:30:08;101748.44;;;23.18;57.43
73457;BME280;61691;53.072;6.582;2023-08-24T06:32:35;101747.19;;;23.70;56.88
73457;BME280;61691;53.072;6.582;2023-08-24T06:35:04;101750.41;;;24.21;56.23
73457;BME280;61691;53.072;6.582;2023-08-24T06:37:30;101747.25;;;24.78;55.58
73457;BME280;61691;53.072;6.582;2023-08-24T06:39:57;101743.97;;;25.55;54.14
73457;BME280;61691;53.072;6.582;2023-08-24T06:42:24;101736.38;;;25.97;52.37
73457;BME280;61691;53.072;6.582;2023-08-24T06:44:50;101738.81;;;26.18;50.41
73457;BME280;61691;53.072;6.582;2023-08-24T06:47:17;101744.44;;;26.23;50.07
73457;BME280;61691;53.072;6.582;2023-08-24T06:49:44;101722.81;;;26.41;49.08
73457;BME280;61691;53.072;6.582;2023-08-24T06:52:11;101717.94;;;26.56;48.09
73457;BME280;61691;53.072;6.582;2023-08-24T06:54:38;101725.22;;;26.94;47.24
73457;BME280;61691;53.072;6.582;2023-08-24T06:57:04;101729.38;;;27.28;46.67
73457;BME280;61691;53.072;6.582;2023-08-24T06:59:31;101726.97;;;27.81;46.96
73457;BME280;61691;53.072;6.582;2023-08-24T07:01:58;101712.97;;;28.44;45.03
73457;BME280;61691;53.072;6.582;2023-08-24T07:04:26;101690.47;;;28.78;43.35
73457;BME280;61691;53.072;6.582;2023-08-24T07:06:53;101700.59;;;29.13;43.01
73457;BME280;61691;53.072;6.582;2023-08-24T07:09:20;101673.53;;;29.23;41.80
73457;BME280;61691;53.072;6.582;2023-08-24T07:11:48;101690.25;;;29.73;41.59
73457;BME280;61691;53.072;6.582;2023-08-24T07:14:15;101673.19;;;30.06;40.28
73457;BME280;61691;53.072;6.582;2023-08-24T07:16:41;101683.44;;;30.56;40.10
73457;BME280;61691;53.072;6.582;2023-08-24T07:19:09;101669.22;;;30.87;39.05
73457;BME280;61691;53.072;6.582;2023-08-24T07:21:36;101658.59;;;31.07;37.98
73457;BME280;61691;53.072;6.582;2023-08-24T07:24:03;101663.72;;;31.21;37.81
73457;BME280;61691;53.072;6.582;2023-08-24T07:26:30;101667.47;;;31.14;37.49
73457;BME280;61691;53.072;6.582;2023-08-24T07:28:57;101670.38;;;31.08;36.83
73457;BME280;61691;53.072;6.582;2023-08-24T07:31:24;101659.91;;;31.22;37.06
73457;BME280;61691;53.072;6.582;2023-08-24T07:33:51;101662.19;;;31.46;36.90
73457;BME280;61691;53.072;6.582;2023-08-24T07:36:18;101658.66;;;31.51;36.32
73457;BME280;61691;53.072;6.582;2023-08-24T07:38:45;101664.47;;;31.71;35.81
73457;BME280;61691;53.072;6.582;2023-08-24T07:41:13;101662.22;;;31.68;35.83
73457;BME280;61691;53.072;6.582;2023-08-24T07:43:39;101658.66;;;31.68;35.98
73457;BME280;61691;53.072;6.582;2023-08-24T07:46:06;101653.06;;;31.79;35.49
73457;BME280;61691;53.072;6.582;2023-08-24T07:48:35;101647.28;;;31.81;36.05
73457;BME280;61691;53.072;6.582;2023-08-24T07:51:02;101629.19;;;32.02;35.45
73457;BME280;61691;53.072;6.582;2023-08-24T07:53:29;101614.06;;;32.26;35.82
73457;BME280;61691;53.072;6.582;2023-08-24T07:55:56;101639.28;;;32.82;34.67
73457;BME280;61691;53.072;6.582;2023-08-24T07:58:24;101636.09;;;32.95;34.04
73457;BME280;61691;53.072;6.582;2023-08-24T08:00:51;101627.44;;;33.13;34.01
73457;BME280;61691;53.072;6.582;2023-08-24T08:03:19;101635.38;;;33.62;33.66
73457;BME280;61691;53.072;6.582;2023-08-24T08:05:46;101646.34;;;33.52;33.13
73457;BME280;61691;53.072;6.582;2023-08-24T08:08:14;101632.63;;;33.62;32.92
73457;BME280;61691;53.072;6.582;2023-08-24T08:10:41;101646.13;;;33.68;32.70
73457;BME280;61691;53.072;6.582;2023-08-24T08:13:08;101655.72;;;33.61;32.73
73457;BME280;61691;53.072;6.582;2023-08-24T08:15:37;101666.69;;;33.51;32.51
73457;BME280;61691;53.072;6.582;2023-08-24T08:18:05;101654.97;;;33.23;33.41
73457;BME280;61691;53.072;6.582;2023-08-24T08:20:32;101649.41;;;32.49;33.94
73457;BME280;61691;53.072;6.582;2023-08-24T08:22:59;101595.91;;;31.49;34.73
73457;BME280;61691;53.072;6.582;2023-08-24T08:25:26;101636.34;;;31.04;36.41
73457;BME280;61691;53.072;6.582;2023-08-24T08:27:52;101619.75;;;30.60;37.21
73457;BME280;61691;53.072;6.582;2023-08-24T08:30:19;101633.72;;;30.02;37.27
73457;BME280;61691;53.072;6.582;2023-08-24T08:32:47;101628.88;;;29.29;39.13
73457;BME280;61691;53.072;6.582;2023-08-24T08:35:14;101615.34;;;28.87;39.75
73457;BME280;61691;53.072;6.582;2023-08-24T08:37:41;101619.44;;;28.55;40.58
73457;BME280;61691;53.072;6.582;2023-08-24T08:40:10;101633.84;;;28.02;41.48
73457;BME280;61691;53.072;6.582;2023-08-24T08:42:37;101648.47;;;27.71;42.68
73457;BME280;61691;53.072;6.582;2023-08-24T08:45:10;101647.91;;;27.26;43.33
73457;BME280;61691;53.072;6.582;2023-08-24T08:47:38;101632.88;;;26.99;44.29
73457;BME280;61691;53.072;6.582;2023-08-24T08:50:05;101611.44;;;26.59;45.52
73457;BME280;61691;53.072;6.582;2023-08-24T08:52:32;101605.81;;;26.23;46.27
73457;BME280;61691;53.072;6.582;2023-08-24T08:55:00;101597.94;;;26.15;47.02
73457;BME280;61691;53.072;6.582;2023-08-24T08:57:27;101585.38;;;26.14;47.20
73457;BME280;61691;53.072;6.582;2023-08-24T08:59:59;101560.47;;;25.86;48.38
73457;BME280;61691;53.072;6.582;2023-08-24T09:02:26;101568.09;;;25.57;49.63
73457;BME280;61691;53.072;6.582;2023-08-24T09:04:56;101569.22;;;25.36;51.11
73457;BME280;61691;53.072;6.582;2023-08-24T09:07:23;101560.28;;;25.29;50.31
73457;BME280;61691;53.072;6.582;2023-08-24T09:09:50;101511.13;;;24.86;50.98
73457;BME280;61691;53.072;6.582;2023-08-24T09:12:17;101577.81;;;25.27;50.76
73457;BME280;61691;53.072;6.582;2023-08-24T09:14:43;101583.22;;;25.27;51.42
73457;BME280;61691;53.072;6.582;2023-08-24T09:17:10;101580.50;;;25.27;51.31
73457;BME280;61691;53.072;6.582;2023-08-24T09:19:37;101569.25;;;25.30;52.41
73457;BME280;61691;53.072;6.582;2023-08-24T09:22:07;101531.75;;;25.00;52.03
73457;BME280;61691;53.072;6.582;2023-08-24T09:24:35;101588.66;;;25.40;51.90
73457;BME280;61691;53.072;6.582;2023-08-24T09:27:14;101603.41;;;25.51;52.02
73457;BME280;61691;53.072;6.582;2023-08-24T09:29:42;101605.28;;;25.50;51.34
73457;BME280;61691;53.072;6.582;2023-08-24T09:32:09;101594.03;;;25.47;51.77
73457;BME280;61691;53.072;6.582;2023-08-24T09:34:36;101562.38;;;25.21;52.04
73457;BME280;61691;53.072;6.582;2023-08-24T09:37:03;101563.19;;;25.28;51.72
73457;BME280;61691;53.072;6.582;2023-08-24T09:39:31;101509.84;;;25.02;52.20
73457;BME280;61691;53.072;6.582;2023-08-24T09:42:00;101574.03;;;25.34;52.80
73457;BME280;61691;53.072;6.582;2023-08-24T09:44:29;101554.22;;;25.27;52.90
73457;BME280;61691;53.072;6.582;2023-08-24T09:46:56;101531.31;;;25.03;53.77
73457;BME280;61691;53.072;6.582;2023-08-24T09:49:22;101543.22;;;25.09;53.37
73457;BME280;61691;53.072;6.582;2023-08-24T09:51:49;101524.91;;;24.91;53.54
73457;BME280;61691;53.072;6.582;2023-08-24T09:54:21;101534.88;;;24.97;54.04
73457;BME280;61691;53.072;6.582;2023-08-24T09:56:54;101519.47;;;24.78;54.42
73457;BME280;61691;53.072;6.582;2023-08-24T09:59:22;101498.41;;;24.60;54.18
73457;BME280;61691;53.072;6.582;2023-08-24T10:01:51;101543.22;;;24.83;54.70
73457;BME280;61691;53.072;6.582;2023-08-24T10:04:24;101537.78;;;24.89;54.65
73457;BME280;61691;53.072;6.582;2023-08-24T10:06:55;101531.34;;;24.90;54.23
73457;BME280;61691;53.072;6.582;2023-08-24T10:09:30;101541.78;;;24.93;54.52
73457;BME280;61691;53.072;6.582;2023-08-24T10:12:00;101522.78;;;24.87;54.20
73457;BME280;61691;53.072;6.582;2023-08-24T10:14:36;101519.25;;;24.86;54.49
73457;BME280;61691;53.072;6.582;2023-08-24T10:17:08;101471.75;;;24.57;54.36
73457;BME280;61691;53.072;6.582;2023-08-24T10:19:35;101506.94;;;24.77;54.37
73457;BME280;61691;53.072;6.582;2023-08-24T10:22:02;101453.19;;;24.48;54.45
73457;BME280;61691;53.072;6.582;2023-08-24T10:24:31;101481.94;;;24.62;54.83
73457;BME280;61691;53.072;6.582;2023-08-24T10:26:57;101479.84;;;24.71;55.17
73457;BME280;61691;53.072;6.582;2023-08-24T10:29:27;101470.28;;;24.61;55.16
73457;BME280;61691;53.072;6.582;2023-08-24T10:31:54;101480.69;;;24.71;55.44
73457;BME280;61691;53.072;6.582;2023-08-24T10:34:23;101459.03;;;24.64;55.70
73457;BME280;61691;53.072;6.582;2023-08-24T10:36:50;101464.00;;;24.61;56.02
73457;BME280;61691;53.072;6.582;2023-08-24T10:39:18;101455.69;;;24.56;55.80
73457;BME280;61691;53.072;6.582;2023-08-24T10:41:53;101454.44;;;24.52;56.57
73457;BME280;61691;53.072;6.582;2023-08-24T10:44:21;101462.34;;;24.60;56.76
73457;BME280;61691;53.072;6.582;2023-08-24T10:47:14;101470.28;;;24.55;57.11
73457;BME280;61691;53.072;6.582;2023-08-24T10:49:42;101444.06;;;24.36;57.19
73457;BME280;61691;53.072;6.582;2023-08-24T10:52:21;101470.50;;;24.47;57.44
73457;BME280;61691;53.072;6.582;2023-08-24T10:54:50;101465.72;;;24.49;57.80
73457;BME280;61691;53.072;6.582;2023-08-24T10:57:18;101439.66;;;24.41;57.76
73457;BME280;61691;53.072;6.582;2023-08-24T10:59:58;101444.88;;;24.43;58.16
73457;BME280;61691;53.072;6.582;2023-08-24T11:02:26;101442.38;;;24.41;58.56
73457;BME280;61691;53.072;6.582;2023-08-24T11:05:24;101449.44;;;24.49;58.76
73457;BME280;61691;53.072;6.582;2023-08-24T11:07:56;101433.41;;;24.47;58.55
73457;BME280;61691;53.072;6.582;2023-08-24T11:13:11;101430.03;;;24.65;59.09
73457;BME280;61691;53.072;6.582;2023-08-24T11:15:43;101435.22;;;24.73;59.43
73457;BME280;61691;53.072;6.582;2023-08-24T11:18:20;101436.84;;;24.74;59.22
73457;BME280;61691;53.072;6.582;2023-08-24T11:21:01;101443.94;;;24.75;59.67
73457;BME280;61691;53.072;6.582;2023-08-24T11:23:29;101443.13;;;24.75;59.56
73457;BME280;61691;53.072;6.582;2023-08-24T11:25:58;101441.25;;;24.75;59.70
73457;BME280;61691;53.072;6.582;2023-08-24T11:28:30;101441.00;;;24.83;59.36
73457;BME280;61691;53.072;6.582;2023-08-24T11:30:58;101442.25;;;24.87;59.82
73457;BME280;61691;53.072;6.582;2023-08-24T11:33:34;101421.84;;;24.78;59.27
73457;BME280;61691;53.072;6.582;2023-08-24T11:36:05;101422.66;;;24.85;60.07
73457;BME280;61691;53.072;6.582;2023-08-24T11:38:41;101420.38;;;24.95;60.06
73457;BME280;61691;53.072;6.582;2023-08-24T11:43:38;101378.84;;;24.88;59.28
73457;BME280;61691;53.072;6.582;2023-08-24T11:46:05;101399.47;;;25.02;59.00
73457;BME280;61691;53.072;6.582;2023-08-24T11:48:33;101395.09;;;25.01;59.30
73457;BME280;61691;53.072;6.582;2023-08-24T11:50:59;101400.25;;;25.10;59.82
73457;BME280;61691;53.072;6.582;2023-08-24T11:53:28;101389.16;;;25.11;59.48
73457;BME280;61691;53.072;6.582;2023-08-24T11:55:59;101387.50;;;25.17;59.69
73457;BME280;61691;53.072;6.582;2023-08-24T11:58:31;101379.44;;;25.35;59.27
73457;BME280;61691;53.072;6.582;2023-08-24T12:00:58;101396.44;;;25.55;58.78
73457;BME280;61691;53.072;6.582;2023-08-24T12:03:29;101388.06;;;25.63;58.54
73457;BME280;61691;53.072;6.582;2023-08-24T12:06:13;101405.31;;;25.75;57.47
73457;BME280;61691;53.072;6.582;2023-08-24T12:08:41;101404.25;;;25.76;57.62
73457;BME280;61691;53.072;6.582;2023-08-24T12:11:16;101388.22;;;25.68;57.35
73457;BME280;61691;53.072;6.582;2023-08-24T12:13:48;101400.69;;;25.76;56.79
73457;BME280;61691;53.072;6.582;2023-08-24T12:16:16;101400.84;;;25.81;56.82
73457;BME280;61691;53.072;6.582;2023-08-24T12:18:49;101385.88;;;25.72;57.14
73457;BME280;61691;53.072;6.582;2023-08-24T12:21:16;101386.28;;;25.75;56.61
73457;BME280;61691;53.072;6.582;2023-08-24T12:23:42;101385.41;;;25.81;56.86
73457;BME280;61691;53.072;6.582;2023-08-24T12:26:17;101385.81;;;25.85;57.03
73457;BME280;61691;53.072;6.582;2023-08-24T12:28:49;101371.44;;;25.78;56.68
73457;BME280;61691;53.072;6.582;2023-08-24T12:31:16;101391.88;;;25.80;56.87
73457;BME280;61691;53.072;6.582;2023-08-24T12:33:44;101380.03;;;25.75;56.85
73457;BME280;61691;53.072;6.582;2023-08-24T12:36:11;101371.72;;;25.70;56.75
73457;BME280;61691;53.072;6.582;2023-08-24T12:38:38;101362.53;;;25.64;56.95
73457;BME280;61691;53.072;6.582;2023-08-24T12:41:06;101356.69;;;25.67;57.04
73457;BME280;61691;53.072;6.582;2023-08-24T12:43:32;101354.38;;;25.71;56.55
73457;BME280;61691;53.072;6.582;2023-08-24T12:45:59;101341.59;;;25.71;56.60
73457;BME280;61691;53.072;6.582;2023-08-24T12:48:26;101348.06;;;25.77;56.32
73457;BME280;61691;53.072;6.582;2023-08-24T12:50:53;101337.78;;;25.79;56.46
73457;BME280;61691;53.072;6.582;2023-08-24T12:53:20;101332.91;;;25.88;56.14
73457;BME280;61691;53.072;6.582;2023-08-24T12:55:46;101326.13;;;25.97;56.49
73457;BME280;61691;53.072;6.582;2023-08-24T12:58:13;101326.28;;;26.02;56.35
73457;BME280;61691;53.072;6.582;2023-08-24T13:00:40;101330.84;;;26.08;56.39
73457;BME280;61691;53.072;6.582;2023-08-24T13:03:07;101338.09;;;26.14;56.80
73457;BME280;61691;53.072;6.582;2023-08-24T13:05:34;101339.56;;;26.10;56.29
73457;BME280;61691;53.072;6.582;2023-08-24T13:08:01;101317.59;;;25.93;56.22
73457;BME280;61691;53.072;6.582;2023-08-24T13:10:27;101330.34;;;25.93;56.53
73457;BME280;61691;53.072;6.582;2023-08-24T13:12:54;101324.38;;;25.84;56.54
73457;BME280;61691;53.072;6.582;2023-08-24T13:15:22;101318.19;;;25.77;56.65
73457;BME280;61691;53.072;6.582;2023-08-24T13:17:49;101325.66;;;25.81;57.25
73457;BME280;61691;53.072;6.582;2023-08-24T13:20:17;101321.25;;;25.80;57.51
73457;BME280;61691;53.072;6.582;2023-08-24T13:22:43;101298.97;;;25.72;57.54
73457;BME280;61691;53.072;6.582;2023-08-24T13:25:10;101310.56;;;25.86;58.20
73457;BME280;61691;53.072;6.582;2023-08-24T13:27:37;101303.09;;;25.81;58.42
73457;BME280;61691;53.072;6.582;2023-08-24T13:30:04;101311.00;;;25.82;58.43
73457;BME280;61691;53.072;6.582;2023-08-24T13:32:31;101260.06;;;25.53;58.07
73457;BME280;61691;53.072;6.582;2023-08-24T13:34:58;101285.47;;;25.65;58.20
73457;BME280;61691;53.072;6.582;2023-08-24T13:37:25;101307.38;;;25.70;58.31
73457;BME280;61691;53.072;6.582;2023-08-24T13:39:52;101294.22;;;25.67;59.03
73457;BME280;61691;53.072;6.582;2023-08-24T13:42:18;101294.84;;;25.69;59.89
73457;BME280;61691;53.072;6.582;2023-08-24T13:44:46;101294.00;;;25.69;59.13
73457;BME280;61691;53.072;6.582;2023-08-24T13:47:13;101285.88;;;25.69;59.55
73457;BME280;61691;53.072;6.582;2023-08-24T13:49:40;101269.34;;;25.70;59.24
73457;BME280;61691;53.072;6.582;2023-08-24T13:52:07;101293.81;;;25.89;58.89
73457;BME280;61691;53.072;6.582;2023-08-24T13:54:34;101281.59;;;25.98;58.68
73457;BME280;61691;53.072;6.582;2023-08-24T13:57:01;101240.00;;;25.79;58.57
73457;BME280;61691;53.072;6.582;2023-08-24T13:59:28;101196.34;;;25.62;58.06
73457;BME280;61691;53.072;6.582;2023-08-24T14:01:55;101265.53;;;26.14;57.46
73457;BME280;61691;53.072;6.582;2023-08-24T14:04:22;101251.25;;;26.19;57.64
73457;BME280;61691;53.072;6.582;2023-08-24T14:06:49;101237.63;;;26.26;56.95
73457;BME280;61691;53.072;6.582;2023-08-24T14:09:15;101203.63;;;26.16;56.22
73457;BME280;61691;53.072;6.582;2023-08-24T14:11:42;101230.91;;;26.28;56.16
73457;BME280;61691;53.072;6.582;2023-08-24T14:14:09;101243.34;;;26.36;56.42
73457;BME280;61691;53.072;6.582;2023-08-24T14:16:36;101238.63;;;26.31;56.26
73457;BME280;61691;53.072;6.582;2023-08-24T14:19:03;101251.00;;;26.27;56.94
73457;BME280;61691;53.072;6.582;2023-08-24T14:21:32;101251.25;;;26.19;57.27
73457;BME280;61691;53.072;6.582;2023-08-24T14:24:01;101250.59;;;26.05;57.89
73457;BME280;61691;53.072;6.582;2023-08-24T14:26:29;101240.72;;;25.93;57.36
73457;BME280;61691;53.072;6.582;2023-08-24T14:28:57;101239.03;;;25.73;57.76
73457;BME280;61691;53.072;6.582;2023-08-24T14:31:26;101258.88;;;25.74;57.51